sensor_id;sensor_type;location;lat;lon;timestamp;pressure;altitude;pressure_sealevel;temperature;humidity
56681;BME280;42558;52.388;13.390;2022-11-11T00:01:31;102404.38;;;7.49;100.00
56681;BME280;42558;52.388;13.390;2022-11-11T00:03:59;102405.24;;;7.41;100.00
56681;BME280;42558;52.388;13.390;2022-11-11T00:06:28;102401.83;;;7.43;100.00
56681;BME280;42558;52.388;13.390;2022-11-11T00:08:56;102402.75;;;7.44;100.00
56681;BME280;42558;52.388;13.390;2022-11-11T00:11:24;102394.95;;;7.38;100.00
56681;BME280;42558;52.388;13.390;2022-11-11T00:13:53;102396.87;;;7.38;100.00
56681;BME280;42558;52.388;13.390;2022-11-11T00:16:22;102392.53;;;7.35;100.00
56681;BME280;42558;52.388;13.390;2022-11-11T00:18:52;102389.48;;;7.37;100.00
56681;BME280;42558;52.388;13.390;2022-11-11T00:21:40;102383.05;;;7.35;100.00
56681;BME280;42558;52.388;13.390;2022-11-11T00:24:29;102392.23;;;7.36;100.00
56681;BME280;42558;52.388;13.390;2022-11-11T00:27:18;102401.30;;;7.29;100.00
56681;BME280;42558;52.388;13.390;2022-11-11T00:29:48;102400.20;;;7.29;100.00
56681;BME280;42558;52.388;13.390;2022-11-11T00:32:18;102398.14;;;7.32;100.00
56681;BME280;42558;52.388;13.390;2022-11-11T00:34:58;102405.55;;;7.27;100.00
56681;BME280;42558;52.388;13.390;2022-11-11T00:37:47;102417.35;;;7.22;100.00
56681;BME280;42558;52.388;13.390;2022-11-11T00:40:16;102418.94;;;7.19;100.00
56681;BME280;42558;52.388;13.390;2022-11-11T00:42:43;102417.06;;;7.17;100.00
56681;BME280;42558;52.388;13.390;2022-11-11T00:45:13;102416.33;;;7.16;100.00
56681;BME280;42558;52.388;13.390;2022-11-11T00:47:43;102417.16;;;7.15;100.00
56681;BME280;42558;52.388;13.390;2022-11-11T00:50:32;102417.41;;;7.07;100.00
56681;BME280;42558;52.388;13.390;2022-11-11T00:53:24;102412.96;;;7.03;100.00
56681;BME280;42558;52.388;13.390;2022-11-11T00:55:56;102409.05;;;6.98;100.00
56681;BME280;42558;52.388;13.390;2022-11-11T00:58:23;102412.27;;;6.96;100.00
56681;BME280;42558;52.388;13.390;2022-11-11T01:00:51;102414.62;;;6.95;100.00
56681;BME280;42558;52.388;13.390;2022-11-11T01:03:22;102407.02;;;6.93;100.00
56681;BME280;42558;52.388;13.390;2022-11-11T01:05:51;102406.59;;;6.92;100.00
56681;BME280;42558;52.388;13.390;2022-11-11T01:08:24;102407.39;;;6.84;100.00
56681;BME280;42558;52.388;13.390;2022-11-11T01:10:53;102408.30;;;6.81;100.00
56681;BME280;42558;52.388;13.390;2022-11-11T01:13:30;102403.39;;;6.84;100.00
56681;BME280;42558;52.388;13.390;2022-11-11T01:16:05;102394.14;;;6.81;100.00
56681;BME280;42558;52.388;13.390;2022-11-11T01:18:36;102382.07;;;6.84;100.00
56681;BME280;42558;52.388;13.390;2022-11-11T01:21:11;102372.73;;;6.80;100.00
56681;BME280;42558;52.388;13.390;2022-11-11T01:23:44;102371.02;;;6.77;100.00
56681;BME280;42558;52.388;13.390;2022-11-11T01:26:22;102371.46;;;6.76;100.00
56681;BME280;42558;52.388;13.390;2022-11-11T01:28:59;102374.60;;;6.78;100.00
56681;BME280;42558;52.388;13.390;2022-11-11T01:31:29;102372.94;;;6.80;100.00
56681;BME280;42558;52.388;13.390;2022-11-11T01:33:59;102374.46;;;6.86;100.00
56681;BME280;42558;52.388;13.390;2022-11-11T01:36:29;102371.88;;;6.90;100.00
56681;BME280;42558;52.388;13.390;2022-11-11T01:39:00;102378.10;;;6.89;100.00
56681;BME280;42558;52.388;13.390;2022-11-11T01:41:33;102371.91;;;6.88;100.00
56681;BME280;42558;52.388;13.390;2022-11-11T01:49:31;102373.88;;;6.91;100.00
56681;BME280;42558;52.388;13.390;2022-11-11T01:52:25;102382.41;;;6.94;100.00
56681;BME280;42558;52.388;13.390;2022-11-11T01:55:13;102387.69;;;6.88;100.00
56681;BME280;42558;52.388;13.390;2022-11-11T01:57:52;102390.23;;;6.90;100.00
56681;BME280;42558;52.388;13.390;2022-11-11T02:00:24;102384.35;;;6.88;100.00
56681;BME280;42558;52.388;13.390;2022-11-11T02:03:04;102384.30;;;6.84;100.00
56681;BME280;42558;52.388;13.390;2022-11-11T02:05:37;102382.00;;;6.80;100.00
56681;BME280;42558;52.388;13.390;2022-11-11T02:08:18;102379.14;;;6.82;100.00
56681;BME280;42558;52.388;13.390;2022-11-11T02:11:17;102392.41;;;6.85;100.00
56681;BME280;42558;52.388;13.390;2022-11-11T02:14:08;102401.77;;;6.87;100.00
56681;BME280;42558;52.388;13.390;2022-11-11T02:16:57;102404.80;;;6.81;100.00
56681;BME280;42558;52.388;13.390;2022-11-11T02:19:44;102408.48;;;6.81;100.00
56681;BME280;42558;52.388;13.390;2022-11-11T02:25:21;102418.53;;;6.76;100.00
56681;BME280;42558;52.388;13.390;2022-11-11T02:27:51;102422.39;;;6.74;100.00
56681;BME280;42558;52.388;13.390;2022-11-11T02:30:28;102417.55;;;6.71;100.00
56681;BME280;42558;52.388;13.390;2022-11-11T02:32:56;102416.05;;;6.73;100.00
56681;BME280;42558;52.388;13.390;2022-11-11T02:35:31;102421.77;;;6.69;100.00
56681;BME280;42558;52.388;13.390;2022-11-11T02:38:05;102426.71;;;6.73;100.00
56681;BME280;42558;52.388;13.390;2022-11-11T02:40:44;102429.77;;;6.74;100.00
56681;BME280;42558;52.388;13.390;2022-11-11T02:43:33;102429.55;;;6.73;100.00
56681;BME280;42558;52.388;13.390;2022-11-11T02:46:05;102425.79;;;6.75;100.00
56681;BME280;42558;52.388;13.390;2022-11-11T02:48:34;102426.96;;;6.74;100.00
56681;BME280;42558;52.388;13.390;2022-11-11T02:51:02;102426.90;;;6.70;100.00
56681;BME280;42558;52.388;13.390;2022-11-11T02:53:32;102425.95;;;6.66;100.00
56681;BME280;42558;52.388;13.390;2022-11-11T02:56:00;102421.80;;;6.60;100.00
56681;BME280;42558;52.388;13.390;2022-11-11T02:58:29;102418.36;;;6.49;100.00
56681;BME280;42558;52.388;13.390;2022-11-11T03:00:57;102411.02;;;6.49;100.00
56681;BME280;42558;52.388;13.390;2022-11-11T03:03:25;102412.52;;;6.53;100.00
56681;BME280;42558;52.388;13.390;2022-11-11T03:05:54;102418.20;;;6.52;100.00
56681;BME280;42558;52.388;13.390;2022-11-11T03:08:22;102422.21;;;6.55;100.00
56681;BME280;42558;52.388;13.390;2022-11-11T03:10:51;102425.08;;;6.50;100.00
56681;BME280;42558;52.388;13.390;2022-11-11T03:13:19;102430.84;;;6.53;100.00
56681;BME280;42558;52.388;13.390;2022-11-11T03:15:48;102427.85;;;6.56;100.00
56681;BME280;42558;52.388;13.390;2022-11-11T03:18:16;102425.28;;;6.57;100.00
56681;BME280;42558;52.388;13.390;2022-11-11T03:20:45;102423.23;;;6.55;100.00
56681;BME280;42558;52.388;13.390;2022-11-11T03:23:53;102418.34;;;6.51;100.00
56681;BME280;42558;52.388;13.390;2022-11-11T03:26:23;102421.30;;;6.54;100.00
56681;BME280;42558;52.388;13.390;2022-11-11T03:28:53;102421.02;;;6.55;100.00
56681;BME280;42558;52.388;13.390;2022-11-11T03:31:23;102418.10;;;6.57;100.00
56681;BME280;42558;52.388;13.390;2022-11-11T03:33:53;102411.29;;;6.60;100.00
56681;BME280;42558;52.388;13.390;2022-11-11T03:36:21;102401.41;;;6.61;100.00
56681;BME280;42558;52.388;13.390;2022-11-11T03:39:14;102404.14;;;6.60;100.00
56681;BME280;42558;52.388;13.390;2022-11-11T03:41:44;102405.17;;;6.60;100.00
56681;BME280;42558;52.388;13.390;2022-11-11T03:44:14;102401.94;;;6.58;100.00
56681;BME280;42558;52.388;13.390;2022-11-11T03:46:43;102396.45;;;6.57;100.00
56681;BME280;42558;52.388;13.390;2022-11-11T03:49:13;102391.73;;;6.57;100.00
56681;BME280;42558;52.388;13.390;2022-11-11T03:51:43;102387.40;;;6.57;100.00
56681;BME280;42558;52.388;13.390;2022-11-11T03:54:13;102387.08;;;6.58;100.00
56681;BME280;42558;52.388;13.390;2022-11-11T03:56:43;102387.00;;;6.53;100.00
56681;BME280;42558;52.388;13.390;2022-11-11T03:59:13;102380.73;;;6.51;100.00
56681;BME280;42558;52.388;13.390;2022-11-11T04:01:43;102377.63;;;6.48;100.00
56681;BME280;42558;52.388;13.390;2022-11-11T04:04:31;102373.29;;;6.46;100.00
56681;BME280;42558;52.388;13.390;2022-11-11T04:07:20;102376.05;;;6.48;100.00
56681;BME280;42558;52.388;13.390;2022-11-11T04:10:08;102378.41;;;6.47;100.00
56681;BME280;42558;52.388;13.390;2022-11-11T04:12:53;102376.63;;;6.46;100.00
56681;BME280;42558;52.388;13.390;2022-11-11T04:15:42;102373.30;;;6.46;100.00
56681;BME280;42558;52.388;13.390;2022-11-11T04:18:32;102376.98;;;6.46;100.00
56681;BME280;42558;52.388;13.390;2022-11-11T04:21:22;102378.18;;;6.46;100.00
56681;BME280;42558;52.388;13.390;2022-11-11T04:24:20;102381.28;;;6.45;100.00
56681;BME280;42558;52.388;13.390;2022-11-11T04:27:13;102377.57;;;6.44;100.00
56681;BME280;42558;52.388;13.390;2022-11-11T04:29:45;102375.91;;;6.42;100.00
56681;BME280;42558;52.388;13.390;2022-11-11T04:32:21;102374.05;;;6.47;100.00
56681;BME280;42558;52.388;13.390;2022-11-11T04:35:12;102377.99;;;6.46;100.00
56681;BME280;42558;52.388;13.390;2022-11-11T04:37:48;102379.27;;;6.47;100.00
56681;BME280;42558;52.388;13.390;2022-11-11T04:40:18;102384.95;;;6.48;100.00
56681;BME280;42558;52.388;13.390;2022-11-11T04:43:04;102378.10;;;6.48;100.00
56681;BME280;42558;52.388;13.390;2022-11-11T04:45:32;102377.52;;;6.47;100.00
56681;BME280;42558;52.388;13.390;2022-11-11T04:48:08;102371.40;;;6.46;100.00
56681;BME280;42558;52.388;13.390;2022-11-11T04:50:41;102374.34;;;6.46;100.00
56681;BME280;42558;52.388;13.390;2022-11-11T04:53:13;102378.44;;;6.48;100.00
56681;BME280;42558;52.388;13.390;2022-11-11T04:55:44;102381.10;;;6.48;100.00
56681;BME280;42558;52.388;13.390;2022-11-11T04:58:34;102384.81;;;6.46;100.00
56681;BME280;42558;52.388;13.390;2022-11-11T05:01:04;102387.59;;;6.45;100.00
56681;BME280;42558;52.388;13.390;2022-11-11T05:03:33;102387.80;;;6.43;100.00
56681;BME280;42558;52.388;13.390;2022-11-11T05:06:04;102382.57;;;6.40;100.00
56681;BME280;42558;52.388;13.390;2022-11-11T05:08:52;102381.84;;;6.36;100.00
56681;BME280;42558;52.388;13.390;2022-11-11T05:11:31;102377.81;;;6.36;100.00
56681;BME280;42558;52.388;13.390;2022-11-11T05:14:04;102382.00;;;6.39;100.00
56681;BME280;42558;52.388;13.390;2022-11-11T05:16:53;102384.63;;;6.40;100.00
56681;BME280;42558;52.388;13.390;2022-11-11T05:19:43;102383.27;;;6.43;100.00
56681;BME280;42558;52.388;13.390;2022-11-11T05:22:35;102377.77;;;6.44;100.00
56681;BME280;42558;52.388;13.390;2022-11-11T05:25:08;102376.77;;;6.45;100.00
56681;BME280;42558;52.388;13.390;2022-11-11T05:28:02;102377.80;;;6.45;100.00
56681;BME280;42558;52.388;13.390;2022-11-11T05:30:34;102381.21;;;6.47;100.00
56681;BME280;42558;52.388;13.390;2022-11-11T05:33:04;102381.55;;;6.50;100.00
56681;BME280;42558;52.388;13.390;2022-11-11T05:35:34;102386.70;;;6.48;100.00
56681;BME280;42558;52.388;13.390;2022-11-11T05:38:05;102392.15;;;6.49;100.00
56681;BME280;42558;52.388;13.390;2022-11-11T05:40:49;102397.09;;;6.47;100.00
56681;BME280;42558;52.388;13.390;2022-11-11T05:43:19;102406.59;;;6.44;100.00
56681;BME280;42558;52.388;13.390;2022-11-11T05:45:49;102415.48;;;6.44;100.00
56681;BME280;42558;52.388;13.390;2022-11-11T05:48:19;102425.45;;;6.44;100.00
56681;BME280;42558;52.388;13.390;2022-11-11T05:50:49;102437.59;;;6.40;100.00
56681;BME280;42558;52.388;13.390;2022-11-11T05:53:19;102447.14;;;6.42;100.00
56681;BME280;42558;52.388;13.390;2022-11-11T05:55:53;102454.73;;;6.43;100.00
56681;BME280;42558;52.388;13.390;2022-11-11T05:58:25;102450.08;;;6.38;100.00
56681;BME280;42558;52.388;13.390;2022-11-11T06:00:53;102446.09;;;6.36;100.00
56681;BME280;42558;52.388;13.390;2022-11-11T06:03:23;102441.52;;;6.32;100.00
56681;BME280;42558;52.388;13.390;2022-11-11T06:05:56;102432.61;;;6.26;100.00
56681;BME280;42558;52.388;13.390;2022-11-11T06:08:25;102432.31;;;6.24;100.00
56681;BME280;42558;52.388;13.390;2022-11-11T06:10:54;102434.42;;;6.24;100.00
56681;BME280;42558;52.388;13.390;2022-11-11T06:13:24;102442.60;;;6.24;100.00
56681;BME280;42558;52.388;13.390;2022-11-11T06:15:56;102450.20;;;6.22;100.00
56681;BME280;42558;52.388;13.390;2022-11-11T06:18:26;102448.91;;;6.24;100.00
56681;BME280;42558;52.388;13.390;2022-11-11T06:21:00;102453.09;;;6.27;100.00
56681;BME280;42558;52.388;13.390;2022-11-11T06:23:30;102456.61;;;6.27;100.00
56681;BME280;42558;52.388;13.390;2022-11-11T06:26:00;102458.45;;;6.26;100.00
56681;BME280;42558;52.388;13.390;2022-11-11T06:31:25;102463.33;;;6.25;100.00
56681;BME280;42558;52.388;13.390;2022-11-11T06:33:55;102467.77;;;6.27;100.00
56681;BME280;42558;52.388;13.390;2022-11-11T06:36:25;102464.69;;;6.25;100.00
56681;BME280;42558;52.388;13.390;2022-11-11T06:38:56;102460.23;;;6.23;100.00
56681;BME280;42558;52.388;13.390;2022-11-11T06:41:25;102456.48;;;6.25;100.00
56681;BME280;42558;52.388;13.390;2022-11-11T06:43:56;102459.83;;;6.25;100.00
56681;BME280;42558;52.388;13.390;2022-11-11T06:46:26;102457.84;;;6.28;100.00
56681;BME280;42558;52.388;13.390;2022-11-11T06:48:56;102459.66;;;6.32;100.00
56681;BME280;42558;52.388;13.390;2022-11-11T06:51:26;102460.64;;;6.34;100.00
56681;BME280;42558;52.388;13.390;2022-11-11T06:53:56;102458.66;;;6.36;100.00
56681;BME280;42558;52.388;13.390;2022-11-11T06:56:26;102460.89;;;6.38;100.00
56681;BME280;42558;52.388;13.390;2022-11-11T06:58:55;102456.34;;;6.41;100.00
56681;BME280;42558;52.388;13.390;2022-11-11T07:01:25;102446.23;;;6.44;100.00
56681;BME280;42558;52.388;13.390;2022-11-11T07:03:55;102443.27;;;6.44;100.00
56681;BME280;42558;52.388;13.390;2022-11-11T07:06:25;102445.81;;;6.46;100.00
56681;BME280;42558;52.388;13.390;2022-11-11T07:08:55;102441.00;;;6.47;100.00
56681;BME280;42558;52.388;13.390;2022-11-11T07:11:23;102442.96;;;6.51;100.00
56681;BME280;42558;52.388;13.390;2022-11-11T07:13:52;102442.63;;;6.55;100.00
56681;BME280;42558;52.388;13.390;2022-11-11T07:16:20;102444.15;;;6.57;100.00
56681;BME280;42558;52.388;13.390;2022-11-11T07:18:49;102448.30;;;6.59;100.00
56681;BME280;42558;52.388;13.390;2022-11-11T07:21:17;102457.08;;;6.63;100.00
56681;BME280;42558;52.388;13.390;2022-11-11T07:23:45;102462.30;;;6.68;100.00
56681;BME280;42558;52.388;13.390;2022-11-11T07:26:14;102468.08;;;6.72;100.00
56681;BME280;42558;52.388;13.390;2022-11-11T07:28:42;102468.17;;;6.76;100.00
56681;BME280;42558;52.388;13.390;2022-11-11T07:31:11;102461.66;;;6.79;100.00
56681;BME280;42558;52.388;13.390;2022-11-11T07:33:39;102462.09;;;6.83;100.00
56681;BME280;42558;52.388;13.390;2022-11-11T07:36:07;102461.60;;;6.88;100.00
56681;BME280;42558;52.388;13.390;2022-11-11T07:38:36;102460.79;;;6.92;100.00
56681;BME280;42558;52.388;13.390;2022-11-11T07:41:04;102462.88;;;6.98;100.00
56681;BME280;42558;52.388;13.390;2022-11-11T07:43:33;102464.05;;;7.00;100.00
56681;BME280;42558;52.388;13.390;2022-11-11T07:46:01;102466.75;;;7.04;100.00
56681;BME280;42558;52.388;13.390;2022-11-11T07:48:30;102475.23;;;7.09;100.00
56681;BME280;42558;52.388;13.390;2022-11-11T07:50:58;102482.67;;;7.14;100.00
56681;BME280;42558;52.388;13.390;2022-11-11T07:53:26;102487.73;;;7.17;100.00
56681;BME280;42558;52.388;13.390;2022-11-11T07:55:55;102497.98;;;7.22;100.00
56681;BME280;42558;52.388;13.390;2022-11-11T07:58:23;102502.63;;;7.27;100.00
56681;BME280;42558;52.388;13.390;2022-11-11T08:00:52;102505.20;;;7.32;100.00
56681;BME280;42558;52.388;13.390;2022-11-11T08:03:20;102507.87;;;7.36;100.00
56681;BME280;42558;52.388;13.390;2022-11-11T08:05:48;102506.51;;;7.40;100.00
56681;BME280;42558;52.388;13.390;2022-11-11T08:08:17;102505.83;;;7.47;100.00
56681;BME280;42558;52.388;13.390;2022-11-11T08:10:48;102506.55;;;7.51;100.00
56681;BME280;42558;52.388;13.390;2022-11-11T08:13:17;102507.83;;;7.55;100.00
56681;BME280;42558;52.388;13.390;2022-11-11T08:16:10;102511.29;;;7.57;100.00
56681;BME280;42558;52.388;13.390;2022-11-11T08:18:40;102514.85;;;7.62;100.00
56681;BME280;42558;52.388;13.390;2022-11-11T08:21:10;102525.75;;;7.69;100.00
56681;BME280;42558;52.388;13.390;2022-11-11T08:23:40;102529.70;;;7.81;100.00
56681;BME280;42558;52.388;13.390;2022-11-11T08:26:30;102527.38;;;7.93;100.00
56681;BME280;42558;52.388;13.390;2022-11-11T08:29:00;102522.58;;;8.05;100.00
56681;BME280;42558;52.388;13.390;2022-11-11T08:31:30;102521.05;;;8.13;100.00
56681;BME280;42558;52.388;13.390;2022-11-11T08:34:01;102525.97;;;8.23;100.00
56681;BME280;42558;52.388;13.390;2022-11-11T08:36:31;102523.11;;;8.39;100.00
56681;BME280;42558;52.388;13.390;2022-11-11T08:39:01;102532.53;;;8.38;100.00
56681;BME280;42558;52.388;13.390;2022-11-11T08:41:31;102535.09;;;8.54;100.00
56681;BME280;42558;52.388;13.390;2022-11-11T08:44:01;102534.96;;;8.65;100.00
56681;BME280;42558;52.388;13.390;2022-11-11T08:46:33;102535.00;;;8.59;100.00
56681;BME280;42558;52.388;13.390;2022-11-11T08:49:03;102529.14;;;8.68;100.00
56681;BME280;42558;52.388;13.390;2022-11-11T08:51:33;102531.02;;;8.85;100.00
56681;BME280;42558;52.388;13.390;2022-11-11T08:54:13;102539.07;;;8.98;100.00
56681;BME280;42558;52.388;13.390;2022-11-11T08:56:42;102545.27;;;9.07;100.00
56681;BME280;42558;52.388;13.390;2022-11-11T08:59:12;102547.98;;;9.09;100.00
56681;BME280;42558;52.388;13.390;2022-11-11T09:01:42;102550.74;;;9.26;100.00
56681;BME280;42558;52.388;13.390;2022-11-11T09:04:12;102547.05;;;9.44;100.00
56681;BME280;42558;52.388;13.390;2022-11-11T09:07:00;102558.65;;;9.33;100.00
56681;BME280;42558;52.388;13.390;2022-11-11T09:09:28;102564.05;;;9.40;100.00
56681;BME280;42558;52.388;13.390;2022-11-11T09:11:57;102567.20;;;9.55;100.00
56681;BME280;42558;52.388;13.390;2022-11-11T09:14:26;102568.11;;;9.59;100.00
56681;BME280;42558;52.388;13.390;2022-11-11T09:16:54;102572.31;;;9.74;99.97
56681;BME280;42558;52.388;13.390;2022-11-11T09:19:23;102572.14;;;9.70;99.42
56681;BME280;42558;52.388;13.390;2022-11-11T09:21:51;102571.54;;;9.65;99.68
56681;BME280;42558;52.388;13.390;2022-11-11T09:24:19;102575.06;;;9.73;99.40
56681;BME280;42558;52.388;13.390;2022-11-11T09:26:49;102573.63;;;9.79;99.05
56681;BME280;42558;52.388;13.390;2022-11-11T09:29:19;102574.39;;;9.96;98.60
56681;BME280;42558;52.388;13.390;2022-11-11T09:31:48;102577.61;;;10.09;98.08
56681;BME280;42558;52.388;13.390;2022-11-11T09:34:16;102580.09;;;10.14;98.10
56681;BME280;42558;52.388;13.390;2022-11-11T09:36:44;102581.00;;;10.15;97.38
56681;BME280;42558;52.388;13.390;2022-11-11T09:39:15;102584.17;;;10.26;97.26
56681;BME280;42558;52.388;13.390;2022-11-11T09:42:18;102589.79;;;10.38;96.82
56681;BME280;42558;52.388;13.390;2022-11-11T09:45:13;102588.05;;;10.42;97.93
56681;BME280;42558;52.388;13.390;2022-11-11T09:51:51;102588.52;;;10.61;95.68
56681;BME280;42558;52.388;13.390;2022-11-11T09:54:40;102591.98;;;10.63;95.26
56681;BME280;42558;52.388;13.390;2022-11-11T09:57:24;102599.74;;;10.48;94.84
56681;BME280;42558;52.388;13.390;2022-11-11T10:00:00;102600.41;;;10.59;95.05
56681;BME280;42558;52.388;13.390;2022-11-11T10:02:38;102599.77;;;10.73;95.23
56681;BME280;42558;52.388;13.390;2022-11-11T10:05:21;102599.00;;;10.76;94.45
56681;BME280;42558;52.388;13.390;2022-11-11T10:10:46;102598.08;;;10.75;94.95
56681;BME280;42558;52.388;13.390;2022-11-11T10:13:27;102603.14;;;10.70;94.49
56681;BME280;42558;52.388;13.390;2022-11-11T10:21:58;102614.55;;;10.73;93.57
56681;BME280;42558;52.388;13.390;2022-11-11T10:25:24;102611.95;;;10.87;92.07
56681;BME280;42558;52.388;13.390;2022-11-11T10:27:59;102612.81;;;10.90;91.65
56681;BME280;42558;52.388;13.390;2022-11-11T10:30:32;102614.60;;;11.03;91.46
56681;BME280;42558;52.388;13.390;2022-11-11T10:33:19;102613.15;;;10.94;91.23
56681;BME280;42558;52.388;13.390;2022-11-11T10:35:53;102611.22;;;10.98;90.58
56681;BME280;42558;52.388;13.390;2022-11-11T10:39:04;102602.79;;;11.25;90.17
56681;BME280;42558;52.388;13.390;2022-11-11T10:41:39;102601.43;;;11.39;87.79
56681;BME280;42558;52.388;13.390;2022-11-11T10:44:31;102607.23;;;11.52;88.46
56681;BME280;42558;52.388;13.390;2022-11-11T10:47:25;102605.30;;;11.97;85.41
56681;BME280;42558;52.388;13.390;2022-11-11T10:50:19;102604.43;;;11.75;84.38
56681;BME280;42558;52.388;13.390;2022-11-11T10:53:21;102603.73;;;11.75;85.53
56681;BME280;42558;52.388;13.390;2022-11-11T10:59:09;102602.68;;;11.84;84.49
56681;BME280;42558;52.388;13.390;2022-11-11T11:02:05;102604.02;;;11.91;85.14
56681;BME280;42558;52.388;13.390;2022-11-11T11:04:46;102598.63;;;11.88;85.60
56681;BME280;42558;52.388;13.390;2022-11-11T11:07:28;102599.68;;;11.76;84.83
56681;BME280;42558;52.388;13.390;2022-11-11T11:10:27;102594.32;;;11.78;84.38
56681;BME280;42558;52.388;13.390;2022-11-11T11:13:16;102593.19;;;11.71;83.97
56681;BME280;42558;52.388;13.390;2022-11-11T11:15:54;102585.04;;;11.88;84.82
56681;BME280;42558;52.388;13.390;2022-11-11T11:18:25;102583.86;;;11.89;84.16
56681;BME280;42558;52.388;13.390;2022-11-11T11:20:59;102587.08;;;11.86;84.92
56681;BME280;42558;52.388;13.390;2022-11-11T11:23:45;102579.80;;;11.99;85.13
56681;BME280;42558;52.388;13.390;2022-11-11T11:26:14;102574.21;;;11.82;84.27
56681;BME280;42558;52.388;13.390;2022-11-11T11:29:00;102571.21;;;11.72;84.63
56681;BME280;42558;52.388;13.390;2022-11-11T11:31:37;102568.92;;;11.63;84.67
56681;BME280;42558;52.388;13.390;2022-11-11T11:34:07;102568.41;;;11.59;85.37
56681;BME280;42558;52.388;13.390;2022-11-11T11:36:37;102563.95;;;11.67;85.84
56681;BME280;42558;52.388;13.390;2022-11-11T11:39:07;102561.60;;;11.66;85.23
56681;BME280;42558;52.388;13.390;2022-11-11T11:41:42;102561.98;;;11.71;85.20
56681;BME280;42558;52.388;13.390;2022-11-11T11:44:38;102562.83;;;11.75;84.49
56681;BME280;42558;52.388;13.390;2022-11-11T11:47:39;102555.29;;;11.71;84.26
56681;BME280;42558;52.388;13.390;2022-11-11T12:08:21;102548.70;;;11.55;87.28
56681;BME280;42558;52.388;13.390;2022-11-11T12:11:12;102547.89;;;11.57;88.31
56681;BME280;42558;52.388;13.390;2022-11-11T12:17:02;102548.88;;;11.69;86.27
56681;BME280;42558;52.388;13.390;2022-11-11T12:20:17;102553.05;;;11.72;86.09
56681;BME280;42558;52.388;13.390;2022-11-11T12:26:06;102538.46;;;11.73;86.14
56681;BME280;42558;52.388;13.390;2022-11-11T12:34:35;102533.87;;;11.59;86.54
56681;BME280;42558;52.388;13.390;2022-11-11T12:40:34;102545.48;;;11.58;86.02
56681;BME280;42558;52.388;13.390;2022-11-11T12:46:17;102549.73;;;11.64;86.79
56681;BME280;42558;52.388;13.390;2022-11-11T12:57:50;102542.52;;;11.73;86.40
56681;BME280;42558;52.388;13.390;2022-11-11T13:00:26;102543.35;;;11.77;86.38
56681;BME280;42558;52.388;13.390;2022-11-11T13:03:16;102543.25;;;11.83;85.56
56681;BME280;42558;52.388;13.390;2022-11-11T13:09:06;102542.49;;;11.82;85.99
56681;BME280;42558;52.388;13.390;2022-11-11T13:17:20;102531.95;;;11.73;86.22
56681;BME280;42558;52.388;13.390;2022-11-11T13:22:50;102529.32;;;11.74;86.33
56681;BME280;42558;52.388;13.390;2022-11-11T13:25:25;102529.42;;;11.71;86.49
56681;BME280;42558;52.388;13.390;2022-11-11T13:28:07;102529.11;;;11.69;87.14
56681;BME280;42558;52.388;13.390;2022-11-11T13:31:37;102528.72;;;11.67;87.88
56681;BME280;42558;52.388;13.390;2022-11-11T13:33:51;102526.97;;;11.58;88.69
56681;BME280;42558;52.388;13.390;2022-11-11T13:36:26;102528.63;;;11.51;90.25
56681;BME280;42558;52.388;13.390;2022-11-11T13:39:02;102526.70;;;11.51;90.47
56681;BME280;42558;52.388;13.390;2022-11-11T13:41:39;102527.75;;;11.51;91.21
56681;BME280;42558;52.388;13.390;2022-11-11T13:44:24;102522.14;;;11.47;91.75
56681;BME280;42558;52.388;13.390;2022-11-11T13:47:06;102525.16;;;11.34;91.92
56681;BME280;42558;52.388;13.390;2022-11-11T13:50:05;102525.84;;;11.29;91.77
56681;BME280;42558;52.388;13.390;2022-11-11T13:53:05;102521.13;;;11.35;91.80
56681;BME280;42558;52.388;13.390;2022-11-11T13:55:40;102528.27;;;11.37;92.43
56681;BME280;42558;52.388;13.390;2022-11-11T13:58:37;102524.42;;;11.38;92.22
56681;BME280;42558;52.388;13.390;2022-11-11T14:01:09;102522.41;;;11.36;91.89
56681;BME280;42558;52.388;13.390;2022-11-11T14:13:57;102528.14;;;11.33;90.24
56681;BME280;42558;52.388;13.390;2022-11-11T14:24:41;102526.68;;;11.10;90.03
56681;BME280;42558;52.388;13.390;2022-11-11T14:29:52;102530.02;;;10.97;90.83
56681;BME280;42558;52.388;13.390;2022-11-11T14:40:32;102529.28;;;10.83;90.77
56681;BME280;42558;52.388;13.390;2022-11-11T14:43:48;102527.38;;;10.84;90.75
56681;BME280;42558;52.388;13.390;2022-11-11T14:46:17;102528.95;;;10.75;91.21
56681;BME280;42558;52.388;13.390;2022-11-11T14:49:01;102533.17;;;10.71;91.47
56681;BME280;42558;52.388;13.390;2022-11-11T14:51:51;102535.94;;;10.66;91.70
56681;BME280;42558;52.388;13.390;2022-11-11T14:54:32;102535.55;;;10.64;92.08
56681;BME280;42558;52.388;13.390;2022-11-11T14:57:09;102541.84;;;10.59;92.17
56681;BME280;42558;52.388;13.390;2022-11-11T14:59:46;102543.09;;;10.56;92.03
56681;BME280;42558;52.388;13.390;2022-11-11T15:02:33;102543.48;;;10.52;92.20
56681;BME280;42558;52.388;13.390;2022-11-11T15:05:15;102549.68;;;10.45;93.21
56681;BME280;42558;52.388;13.390;2022-11-11T15:11:04;102546.84;;;10.32;93.80
56681;BME280;42558;52.388;13.390;2022-11-11T15:14:05;102545.80;;;10.18;95.16
56681;BME280;42558;52.388;13.390;2022-11-11T15:20:10;102552.46;;;9.89;97.66
56681;BME280;42558;52.388;13.390;2022-11-11T15:28:52;102554.98;;;9.71;98.99
56681;BME280;42558;52.388;13.390;2022-11-11T15:37:12;102553.72;;;9.44;100.00
56681;BME280;42558;52.388;13.390;2022-11-11T15:39:50;102554.70;;;9.35;100.00